sensor_id;sensor_type;location;lat;lon;timestamp;temperature;humidity
22966;DHT22;11649;48.090;9.754;2022-08-19T00:01:44;18.60;99.90
22966;DHT22;11649;48.090;9.754;2022-08-19T00:04:21;18.50;99.90
22966;DHT22;11649;48.090;9.754;2022-08-19T00:06:48;18.30;99.90
22966;DHT22;11649;48.090;9.754;2022-08-19T00:09:17;18.30;99.90
22966;DHT22;11649;48.090;9.754;2022-08-19T00:11:45;18.40;99.90
22966;DHT22;11649;48.090;9.754;2022-08-19T00:14:15;18.20;99.90
22966;DHT22;11649;48.090;9.754;2022-08-19T00:16:44;18.50;99.90
22966;DHT22;11649;48.090;9.754;2022-08-19T00:19:12;18.30;99.90
22966;DHT22;11649;48.090;9.754;2022-08-19T00:21:39;18.20;99.90
22966;DHT22;11649;48.090;9.754;2022-08-19T00:24:08;18.10;99.90
22966;DHT22;11649;48.090;9.754;2022-08-19T00:26:36;18.50;99.90
22966;DHT22;11649;48.090;9.754;2022-08-19T00:29:06;18.30;99.90
22966;DHT22;11649;48.090;9.754;2022-08-19T00:31:33;18.20;99.90
22966;DHT22;11649;48.090;9.754;2022-08-19T00:34:00;18.20;99.90
22966;DHT22;11649;48.090;9.754;2022-08-19T00:36:27;18.20;99.90
22966;DHT22;11649;48.090;9.754;2022-08-19T00:38:55;18.10;99.90
22966;DHT22;11649;48.090;9.754;2022-08-19T00:41:23;18.10;99.90
22966;DHT22;11649;48.090;9.754;2022-08-19T00:44:03;18.20;99.90
22966;DHT22;11649;48.090;9.754;2022-08-19T00:46:32;18.20;99.90
22966;DHT22;11649;48.090;9.754;2022-08-19T00:49:00;18.20;99.90
22966;DHT22;11649;48.090;9.754;2022-08-19T00:51:30;18.20;99.90
22966;DHT22;11649;48.090;9.754;2022-08-19T00:53:59;18.00;99.90
22966;DHT22;11649;48.090;9.754;2022-08-19T00:56:27;17.90;99.90
22966;DHT22;11649;48.090;9.754;2022-08-19T00:58:56;17.90;99.90
22966;DHT22;11649;48.090;9.754;2022-08-19T01:01:24;18.00;99.90
22966;DHT22;11649;48.090;9.754;2022-08-19T01:03:51;17.80;99.90
22966;DHT22;11649;48.090;9.754;2022-08-19T01:06:25;17.90;99.90
22966;DHT22;11649;48.090;9.754;2022-08-19T01:08:53;17.80;99.90
22966;DHT22;11649;48.090;9.754;2022-08-19T01:11:20;17.80;99.90
22966;DHT22;11649;48.090;9.754;2022-08-19T01:13:48;17.70;99.90
22966;DHT22;11649;48.090;9.754;2022-08-19T01:16:18;17.90;99.90
22966;DHT22;11649;48.090;9.754;2022-08-19T01:18:46;17.90;99.90
22966;DHT22;11649;48.090;9.754;2022-08-19T01:21:25;17.80;99.90
22966;DHT22;11649;48.090;9.754;2022-08-19T01:23:53;17.80;99.90
22966;DHT22;11649;48.090;9.754;2022-08-19T01:26:23;17.60;99.90
22966;DHT22;11649;48.090;9.754;2022-08-19T01:28:54;17.70;99.90
22966;DHT22;11649;48.090;9.754;2022-08-19T01:31:27;17.60;99.90
22966;DHT22;11649;48.090;9.754;2022-08-19T01:34:00;17.80;99.90
22966;DHT22;11649;48.090;9.754;2022-08-19T01:36:43;17.40;99.90
22966;DHT22;11649;48.090;9.754;2022-08-19T01:44:09;17.50;99.90
22966;DHT22;11649;48.090;9.754;2022-08-19T01:46:46;17.50;99.90
22966;DHT22;11649;48.090;9.754;2022-08-19T01:56:37;17.40;99.90
22966;DHT22;11649;48.090;9.754;2022-08-19T02:01:35;17.50;99.90
22966;DHT22;11649;48.090;9.754;2022-08-19T02:08:57;17.30;99.90
22966;DHT22;11649;48.090;9.754;2022-08-19T02:11:30;17.20;99.90
22966;DHT22;11649;48.090;9.754;2022-08-19T02:13:58;17.40;99.90
22966;DHT22;11649;48.090;9.754;2022-08-19T02:48:42;16.80;99.90
22966;DHT22;11649;48.090;9.754;2022-08-19T02:58:38;17.20;99.90
22966;DHT22;11649;48.090;9.754;2022-08-19T03:01:05;17.20;99.90
22966;DHT22;11649;48.090;9.754;2022-08-19T03:06:18;17.20;99.90
22966;DHT22;11649;48.090;9.754;2022-08-19T03:11:28;17.00;99.90
22966;DHT22;11649;48.090;9.754;2022-08-19T03:26:16;17.40;99.90
22966;DHT22;11649;48.090;9.754;2022-08-19T03:31:26;17.50;99.90
22966;DHT22;11649;48.090;9.754;2022-08-19T03:34:15;17.60;99.90
22966;DHT22;11649;48.090;9.754;2022-08-19T03:36:45;17.60;99.90
22966;DHT22;11649;48.090;9.754;2022-08-19T03:39:12;17.30;99.90
22966;DHT22;11649;48.090;9.754;2022-08-19T03:41:42;17.50;99.90
22966;DHT22;11649;48.090;9.754;2022-08-19T03:44:13;17.30;99.90
22966;DHT22;11649;48.090;9.754;2022-08-19T03:46:46;17.90;99.90
22966;DHT22;11649;48.090;9.754;2022-08-19T03:49:13;17.20;99.90
22966;DHT22;11649;48.090;9.754;2022-08-19T03:51:41;17.40;99.90
22966;DHT22;11649;48.090;9.754;2022-08-19T03:54:11;17.30;99.90
22966;DHT22;11649;48.090;9.754;2022-08-19T03:56:40;17.10;99.90
22966;DHT22;11649;48.090;9.754;2022-08-19T03:59:15;17.10;99.90
22966;DHT22;11649;48.090;9.754;2022-08-19T04:01:42;17.90;99.90
22966;DHT22;11649;48.090;9.754;2022-08-19T04:04:09;17.40;99.90
22966;DHT22;11649;48.090;9.754;2022-08-19T04:06:37;17.60;99.90
22966;DHT22;11649;48.090;9.754;2022-08-19T04:09:07;17.50;99.90
22966;DHT22;11649;48.090;9.754;2022-08-19T04:11:40;17.40;99.90
22966;DHT22;11649;48.090;9.754;2022-08-19T04:14:13;17.70;99.90
22966;DHT22;11649;48.090;9.754;2022-08-19T04:16:40;17.50;99.90
22966;DHT22;11649;48.090;9.754;2022-08-19T04:19:07;17.40;99.90
22966;DHT22;11649;48.090;9.754;2022-08-19T04:21:34;17.40;99.90
22966;DHT22;11649;48.090;9.754;2022-08-19T04:24:01;17.80;99.90
22966;DHT22;11649;48.090;9.754;2022-08-19T04:26:34;17.50;99.90
22966;DHT22;11649;48.090;9.754;2022-08-19T04:29:04;17.70;99.90
22966;DHT22;11649;48.090;9.754;2022-08-19T04:31:38;17.60;99.90
22966;DHT22;11649;48.090;9.754;2022-08-19T04:34:08;18.20;99.90
22966;DHT22;11649;48.090;9.754;2022-08-19T04:36:38;17.80;99.90
22966;DHT22;11649;48.090;9.754;2022-08-19T04:39:10;17.80;99.90
22966;DHT22;11649;48.090;9.754;2022-08-19T04:41:38;17.90;99.90
22966;DHT22;11649;48.090;9.754;2022-08-19T04:44:24;17.60;99.90
22966;DHT22;11649;48.090;9.754;2022-08-19T04:46:52;17.70;99.90
22966;DHT22;11649;48.090;9.754;2022-08-19T04:49:21;17.90;99.90
22966;DHT22;11649;48.090;9.754;2022-08-19T04:51:50;17.70;99.90
22966;DHT22;11649;48.090;9.754;2022-08-19T04:54:19;17.30;99.90
22966;DHT22;11649;48.090;9.754;2022-08-19T04:57:05;17.50;99.90
22966;DHT22;11649;48.090;9.754;2022-08-19T04:59:34;17.60;99.90
22966;DHT22;11649;48.090;9.754;2022-08-19T05:02:01;17.60;99.90
22966;DHT22;11649;48.090;9.754;2022-08-19T05:04:28;17.60;99.90
22966;DHT22;11649;48.090;9.754;2022-08-19T05:06:59;17.60;99.90
22966;DHT22;11649;48.090;9.754;2022-08-19T05:09:29;17.80;99.90
22966;DHT22;11649;48.090;9.754;2022-08-19T05:12:17;18.00;99.90
22966;DHT22;11649;48.090;9.754;2022-08-19T05:14:44;18.00;99.90
22966;DHT22;11649;48.090;9.754;2022-08-19T05:17:14;17.70;99.90
22966;DHT22;11649;48.090;9.754;2022-08-19T05:20:02;17.80;99.90
22966;DHT22;11649;48.090;9.754;2022-08-19T05:22:47;17.80;99.90
22966;DHT22;11649;48.090;9.754;2022-08-19T05:25:18;17.80;99.90
22966;DHT22;11649;48.090;9.754;2022-08-19T05:27:47;18.10;99.90
22966;DHT22;11649;48.090;9.754;2022-08-19T05:30:15;18.00;99.90
22966;DHT22;11649;48.090;9.754;2022-08-19T05:32:42;17.90;99.90
22966;DHT22;11649;48.090;9.754;2022-08-19T05:35:09;17.90;99.90
22966;DHT22;11649;48.090;9.754;2022-08-19T05:37:37;17.90;99.90
22966;DHT22;11649;48.090;9.754;2022-08-19T05:40:08;17.90;99.90
22966;DHT22;11649;48.090;9.754;2022-08-19T05:42:35;17.90;99.90
22966;DHT22;11649;48.090;9.754;2022-08-19T05:45:03;17.90;99.90
22966;DHT22;11649;48.090;9.754;2022-08-19T05:47:30;17.90;99.90
22966;DHT22;11649;48.090;9.754;2022-08-19T05:49:58;17.80;99.90
22966;DHT22;11649;48.090;9.754;2022-08-19T05:52:25;17.90;99.90
22966;DHT22;11649;48.090;9.754;2022-08-19T05:54:54;18.00;99.90
22966;DHT22;11649;48.090;9.754;2022-08-19T05:57:24;18.10;99.90
22966;DHT22;11649;48.090;9.754;2022-08-19T05:59:51;17.90;99.90
22966;DHT22;11649;48.090;9.754;2022-08-19T06:02:28;17.80;99.90
22966;DHT22;11649;48.090;9.754;2022-08-19T06:04:57;17.90;99.90
22966;DHT22;11649;48.090;9.754;2022-08-19T06:07:24;17.70;99.90
22966;DHT22;11649;48.090;9.754;2022-08-19T06:09:51;17.60;99.90
22966;DHT22;11649;48.090;9.754;2022-08-19T06:12:27;17.60;99.90
22966;DHT22;11649;48.090;9.754;2022-08-19T06:14:55;17.70;99.90
22966;DHT22;11649;48.090;9.754;2022-08-19T06:17:28;17.70;99.90
22966;DHT22;11649;48.090;9.754;2022-08-19T06:19:57;17.70;99.90
22966;DHT22;11649;48.090;9.754;2022-08-19T06:22:25;17.60;99.90
22966;DHT22;11649;48.090;9.754;2022-08-19T06:24:52;17.60;99.90
22966;DHT22;11649;48.090;9.754;2022-08-19T06:27:21;17.60;99.90
22966;DHT22;11649;48.090;9.754;2022-08-19T06:29:48;17.60;99.90
22966;DHT22;11649;48.090;9.754;2022-08-19T06:32:17;17.80;99.90
22966;DHT22;11649;48.090;9.754;2022-08-19T06:34:45;17.50;99.90
22966;DHT22;11649;48.090;9.754;2022-08-19T06:37:12;17.60;99.90
22966;DHT22;11649;48.090;9.754;2022-08-19T06:39:41;17.60;99.90
22966;DHT22;11649;48.090;9.754;2022-08-19T06:42:09;17.70;99.90
22966;DHT22;11649;48.090;9.754;2022-08-19T06:44:39;17.90;99.90
22966;DHT22;11649;48.090;9.754;2022-08-19T06:47:12;18.20;99.90
22966;DHT22;11649;48.090;9.754;2022-08-19T06:49:48;17.80;99.90
22966;DHT22;11649;48.090;9.754;2022-08-19T06:52:15;17.70;99.90
22966;DHT22;11649;48.090;9.754;2022-08-19T06:54:42;17.70;99.90
22966;DHT22;11649;48.090;9.754;2022-08-19T06:57:23;17.60;99.90
22966;DHT22;11649;48.090;9.754;2022-08-19T06:59:50;17.60;99.90
22966;DHT22;11649;48.090;9.754;2022-08-19T07:02:18;17.80;99.90
22966;DHT22;11649;48.090;9.754;2022-08-19T07:04:45;17.60;99.90
22966;DHT22;11649;48.090;9.754;2022-08-19T07:07:14;17.60;99.90
22966;DHT22;11649;48.090;9.754;2022-08-19T07:09:47;17.70;99.90
22966;DHT22;11649;48.090;9.754;2022-08-19T07:12:26;17.70;99.90
22966;DHT22;11649;48.090;9.754;2022-08-19T07:14:56;18.00;99.90
22966;DHT22;11649;48.090;9.754;2022-08-19T07:17:24;18.00;99.90
22966;DHT22;11649;48.090;9.754;2022-08-19T07:19:51;18.00;99.90
22966;DHT22;11649;48.090;9.754;2022-08-19T07:22:21;17.90;99.90
22966;DHT22;11649;48.090;9.754;2022-08-19T07:24:50;18.00;99.90
22966;DHT22;11649;48.090;9.754;2022-08-19T07:27:18;18.00;99.90
22966;DHT22;11649;48.090;9.754;2022-08-19T07:29:53;17.90;99.90
22966;DHT22;11649;48.090;9.754;2022-08-19T07:32:23;18.10;99.90
22966;DHT22;11649;48.090;9.754;2022-08-19T07:34:52;18.10;99.90
22966;DHT22;11649;48.090;9.754;2022-08-19T07:37:19;17.90;99.90
22966;DHT22;11649;48.090;9.754;2022-08-19T07:39:46;17.90;99.90
22966;DHT22;11649;48.090;9.754;2022-08-19T07:42:13;17.90;99.90
22966;DHT22;11649;48.090;9.754;2022-08-19T07:44:41;17.80;99.90
22966;DHT22;11649;48.090;9.754;2022-08-19T07:47:15;18.30;99.90
22966;DHT22;11649;48.090;9.754;2022-08-19T07:50:07;17.90;99.90
22966;DHT22;11649;48.090;9.754;2022-08-19T07:52:36;17.70;99.90
22966;DHT22;11649;48.090;9.754;2022-08-19T07:55:07;17.90;99.90
22966;DHT22;11649;48.090;9.754;2022-08-19T07:57:54;17.60;99.90
22966;DHT22;11649;48.090;9.754;2022-08-19T08:00:21;17.60;99.90
22966;DHT22;11649;48.090;9.754;2022-08-19T08:02:50;17.60;99.90
22966;DHT22;11649;48.090;9.754;2022-08-19T08:05:18;18.20;99.90
22966;DHT22;11649;48.090;9.754;2022-08-19T08:08:09;17.70;99.90
22966;DHT22;11649;48.090;9.754;2022-08-19T08:10:54;17.70;99.90
22966;DHT22;11649;48.090;9.754;2022-08-19T08:13:24;17.70;99.90
22966;DHT22;11649;48.090;9.754;2022-08-19T08:15:52;17.70;99.90
22966;DHT22;11649;48.090;9.754;2022-08-19T08:18:25;17.70;99.90
22966;DHT22;11649;48.090;9.754;2022-08-19T08:20:55;17.70;99.90
22966;DHT22;11649;48.090;9.754;2022-08-19T08:23:22;17.90;99.90
22966;DHT22;11649;48.090;9.754;2022-08-19T08:25:54;17.80;99.90
22966;DHT22;11649;48.090;9.754;2022-08-19T08:28:22;17.80;99.90
22966;DHT22;11649;48.090;9.754;2022-08-19T08:30:50;17.90;99.90
22966;DHT22;11649;48.090;9.754;2022-08-19T08:33:23;17.60;99.90
22966;DHT22;11649;48.090;9.754;2022-08-19T08:36:07;17.80;99.90
22966;DHT22;11649;48.090;9.754;2022-08-19T08:38:35;17.80;99.90
22966;DHT22;11649;48.090;9.754;2022-08-19T08:44:03;18.00;99.90
22966;DHT22;11649;48.090;9.754;2022-08-19T08:46:44;18.20;99.90
22966;DHT22;11649;48.090;9.754;2022-08-19T08:49:33;18.10;99.90
22966;DHT22;11649;48.090;9.754;2022-08-19T08:52:10;18.20;99.90
22966;DHT22;11649;48.090;9.754;2022-08-19T08:54:43;18.30;99.90
22966;DHT22;11649;48.090;9.754;2022-08-19T09:00:12;18.20;99.90
22966;DHT22;11649;48.090;9.754;2022-08-19T09:02:42;18.30;99.90
22966;DHT22;11649;48.090;9.754;2022-08-19T09:05:10;18.40;99.90
22966;DHT22;11649;48.090;9.754;2022-08-19T09:07:49;18.40;99.90
22966;DHT22;11649;48.090;9.754;2022-08-19T09:10:39;18.50;99.90
22966;DHT22;11649;48.090;9.754;2022-08-19T09:16:10;18.40;99.90
22966;DHT22;11649;48.090;9.754;2022-08-19T09:18:53;18.70;99.90
22966;DHT22;11649;48.090;9.754;2022-08-19T09:21:21;18.50;99.90
22966;DHT22;11649;48.090;9.754;2022-08-19T09:23:59;18.50;99.90
22966;DHT22;11649;48.090;9.754;2022-08-19T09:26:29;18.50;99.90
22966;DHT22;11649;48.090;9.754;2022-08-19T09:29:16;18.70;99.90
22966;DHT22;11649;48.090;9.754;2022-08-19T09:31:43;18.50;99.90
22966;DHT22;11649;48.090;9.754;2022-08-19T09:34:10;18.50;99.90
22966;DHT22;11649;48.090;9.754;2022-08-19T09:36:48;18.60;99.90
22966;DHT22;11649;48.090;9.754;2022-08-19T09:39:16;18.70;99.90
22966;DHT22;11649;48.090;9.754;2022-08-19T09:41:43;18.80;99.90
22966;DHT22;11649;48.090;9.754;2022-08-19T09:44:14;18.80;99.90
22966;DHT22;11649;48.090;9.754;2022-08-19T09:46:42;18.80;99.90
22966;DHT22;11649;48.090;9.754;2022-08-19T09:49:08;18.80;99.90
22966;DHT22;11649;48.090;9.754;2022-08-19T09:51:35;18.70;99.90
22966;DHT22;11649;48.090;9.754;2022-08-19T09:54:04;18.70;99.90
22966;DHT22;11649;48.090;9.754;2022-08-19T09:56:32;18.80;99.90
22966;DHT22;11649;48.090;9.754;2022-08-19T09:59:01;18.80;99.90
22966;DHT22;11649;48.090;9.754;2022-08-19T10:01:30;18.80;99.90
22966;DHT22;11649;48.090;9.754;2022-08-19T10:03:59;18.80;99.90
22966;DHT22;11649;48.090;9.754;2022-08-19T10:06:33;18.80;99.90
22966;DHT22;11649;48.090;9.754;2022-08-19T10:09:11;18.70;99.90
22966;DHT22;11649;48.090;9.754;2022-08-19T10:11:43;18.80;99.90
22966;DHT22;11649;48.090;9.754;2022-08-19T10:14:20;18.70;99.90
22966;DHT22;11649;48.090;9.754;2022-08-19T10:16:50;18.80;99.90
22966;DHT22;11649;48.090;9.754;2022-08-19T10:19:19;18.90;99.90
22966;DHT22;11649;48.090;9.754;2022-08-19T10:21:52;18.80;99.90
22966;DHT22;11649;48.090;9.754;2022-08-19T10:24:21;19.10;99.90
22966;DHT22;11649;48.090;9.754;2022-08-19T10:26:50;18.50;99.90
22966;DHT22;11649;48.090;9.754;2022-08-19T10:29:23;18.70;99.90
22966;DHT22;11649;48.090;9.754;2022-08-19T10:31:59;18.70;99.90
22966;DHT22;11649;48.090;9.754;2022-08-19T10:34:29;18.60;99.90
22966;DHT22;11649;48.090;9.754;2022-08-19T10:36:57;18.60;99.90
22966;DHT22;11649;48.090;9.754;2022-08-19T10:39:28;18.60;99.90
22966;DHT22;11649;48.090;9.754;2022-08-19T10:41:57;18.50;99.90
22966;DHT22;11649;48.090;9.754;2022-08-19T10:44:24;18.50;99.90
22966;DHT22;11649;48.090;9.754;2022-08-19T10:46:58;18.70;99.90
22966;DHT22;11649;48.090;9.754;2022-08-19T10:49:25;18.70;99.90
22966;DHT22;11649;48.090;9.754;2022-08-19T10:51:54;18.50;99.90
22966;DHT22;11649;48.090;9.754;2022-08-19T10:54:46;18.80;99.90
22966;DHT22;11649;48.090;9.754;2022-08-19T10:57:34;18.40;99.90
22966;DHT22;11649;48.090;9.754;2022-08-19T11:00:22;18.40;99.90
22966;DHT22;11649;48.090;9.754;2022-08-19T11:02:50;18.60;99.90
22966;DHT22;11649;48.090;9.754;2022-08-19T11:05:17;18.40;99.90
22966;DHT22;11649;48.090;9.754;2022-08-19T11:07:45;18.40;99.90
22966;DHT22;11649;48.090;9.754;2022-08-19T11:10:14;18.80;99.90
22966;DHT22;11649;48.090;9.754;2022-08-19T11:12:47;19.10;99.90
22966;DHT22;11649;48.090;9.754;2022-08-19T11:15:14;18.50;99.90
22966;DHT22;11649;48.090;9.754;2022-08-19T11:17:41;18.30;99.90
22966;DHT22;11649;48.090;9.754;2022-08-19T11:20:14;18.80;99.90
22966;DHT22;11649;48.090;9.754;2022-08-19T11:22:41;18.20;99.90
22966;DHT22;11649;48.090;9.754;2022-08-19T11:25:10;18.00;99.90
22966;DHT22;11649;48.090;9.754;2022-08-19T11:27:40;18.10;99.90
22966;DHT22;11649;48.090;9.754;2022-08-19T11:30:12;18.60;99.90
22966;DHT22;11649;48.090;9.754;2022-08-19T11:32:40;18.10;99.90
22966;DHT22;11649;48.090;9.754;2022-08-19T11:35:12;18.20;99.90
22966;DHT22;11649;48.090;9.754;2022-08-19T11:37:39;18.20;99.90
22966;DHT22;11649;48.090;9.754;2022-08-19T11:40:07;18.10;99.90
22966;DHT22;11649;48.090;9.754;2022-08-19T11:42:34;18.10;99.90
22966;DHT22;11649;48.090;9.754;2022-08-19T11:45:20;18.10;99.90
22966;DHT22;11649;48.090;9.754;2022-08-19T11:47:47;18.10;99.90
22966;DHT22;11649;48.090;9.754;2022-08-19T11:50:15;18.90;99.90
22966;DHT22;11649;48.090;9.754;2022-08-19T11:52:43;18.10;99.90
22966;DHT22;11649;48.090;9.754;2022-08-19T11:55:12;18.50;99.90
22966;DHT22;11649;48.090;9.754;2022-08-19T11:57:39;18.40;99.90
22966;DHT22;11649;48.090;9.754;2022-08-19T12:00:08;18.40;99.90
22966;DHT22;11649;48.090;9.754;2022-08-19T12:02:37;18.10;99.90
22966;DHT22;11649;48.090;9.754;2022-08-19T12:05:04;18.00;99.90
22966;DHT22;11649;48.090;9.754;2022-08-19T12:07:37;18.10;99.90
22966;DHT22;11649;48.090;9.754;2022-08-19T12:10:04;18.10;99.90
22966;DHT22;11649;48.090;9.754;2022-08-19T12:12:31;18.20;99.90
22966;DHT22;11649;48.090;9.754;2022-08-19T12:14:58;18.80;99.90
22966;DHT22;11649;48.090;9.754;2022-08-19T12:17:28;18.30;99.90
22966;DHT22;11649;48.090;9.754;2022-08-19T12:19:55;18.30;99.90
22966;DHT22;11649;48.090;9.754;2022-08-19T12:22:22;18.20;99.90
22966;DHT22;11649;48.090;9.754;2022-08-19T12:24:49;18.50;99.90
22966;DHT22;11649;48.090;9.754;2022-08-19T12:27:17;18.40;99.90
22966;DHT22;11649;48.090;9.754;2022-08-19T12:30:07;18.40;99.90
22966;DHT22;11649;48.090;9.754;2022-08-19T12:32:34;18.30;99.90
22966;DHT22;11649;48.090;9.754;2022-08-19T12:35:01;18.30;99.90
22966;DHT22;11649;48.090;9.754;2022-08-19T12:37:28;18.30;99.90
22966;DHT22;11649;48.090;9.754;2022-08-19T12:39:56;18.50;99.90
22966;DHT22;11649;48.090;9.754;2022-08-19T12:42:23;18.40;99.90
22966;DHT22;11649;48.090;9.754;2022-08-19T12:44:50;18.50;99.90
22966;DHT22;11649;48.090;9.754;2022-08-19T12:47:18;18.40;99.90
22966;DHT22;11649;48.090;9.754;2022-08-19T12:49:45;18.30;99.90
22966;DHT22;11649;48.090;9.754;2022-08-19T12:52:23;18.40;99.90
22966;DHT22;11649;48.090;9.754;2022-08-19T12:54:51;18.40;99.90
22966;DHT22;11649;48.090;9.754;2022-08-19T12:57:24;18.70;99.90
22966;DHT22;11649;48.090;9.754;2022-08-19T12:59:58;18.40;99.90
22966;DHT22;11649;48.090;9.754;2022-08-19T13:02:24;18.40;99.90
22966;DHT22;11649;48.090;9.754;2022-08-19T13:04:51;18.40;99.90
22966;DHT22;11649;48.090;9.754;2022-08-19T13:07:18;18.40;99.90
22966;DHT22;11649;48.090;9.754;2022-08-19T13:09:45;18.40;99.90
22966;DHT22;11649;48.090;9.754;2022-08-19T13:12:11;18.70;99.90
22966;DHT22;11649;48.090;9.754;2022-08-19T13:14:40;18.40;99.90
22966;DHT22;11649;48.090;9.754;2022-08-19T13:17:07;18.40;99.90
22966;DHT22;11649;48.090;9.754;2022-08-19T13:19:36;18.40;99.90
22966;DHT22;11649;48.090;9.754;2022-08-19T13:22:03;19.10;99.90
22966;DHT22;11649;48.090;9.754;2022-08-19T13:24:40;18.30;99.90
22966;DHT22;11649;48.090;9.754;2022-08-19T13:27:12;18.40;99.90
22966;DHT22;11649;48.090;9.754;2022-08-19T13:29:40;18.20;99.90
22966;DHT22;11649;48.090;9.754;2022-08-19T13:32:26;18.40;99.90
22966;DHT22;11649;48.090;9.754;2022-08-19T13:35:11;18.40;99.90
22966;DHT22;11649;48.090;9.754;2022-08-19T13:37:42;18.20;99.90
22966;DHT22;11649;48.090;9.754;2022-08-19T13:40:11;18.30;99.90
22966;DHT22;11649;48.090;9.754;2022-08-19T13:42:39;18.20;99.90
22966;DHT22;11649;48.090;9.754;2022-08-19T13:45:07;18.40;99.90
22966;DHT22;11649;48.090;9.754;2022-08-19T13:47:34;18.20;99.90
22966;DHT22;11649;48.090;9.754;2022-08-19T13:50:04;18.90;99.90
22966;DHT22;11649;48.090;9.754;2022-08-19T13:52:31;17.90;99.90
22966;DHT22;11649;48.090;9.754;2022-08-19T13:54:58;18.00;99.90
22966;DHT22;11649;48.090;9.754;2022-08-19T13:57:25;18.00;99.90
22966;DHT22;11649;48.090;9.754;2022-08-19T13:59:52;18.00;99.90
22966;DHT22;11649;48.090;9.754;2022-08-19T14:02:18;17.80;99.90
22966;DHT22;11649;48.090;9.754;2022-08-19T14:04:45;17.40;99.90
22966;DHT22;11649;48.090;9.754;2022-08-19T14:07:12;17.60;99.90
22966;DHT22;11649;48.090;9.754;2022-08-19T14:09:39;17.60;99.90
22966;DHT22;11649;48.090;9.754;2022-08-19T14:12:06;17.40;99.90
22966;DHT22;11649;48.090;9.754;2022-08-19T14:14:37;17.30;99.90
22966;DHT22;11649;48.090;9.754;2022-08-19T14:17:07;17.40;99.90
22966;DHT22;11649;48.090;9.754;2022-08-19T14:19:38;17.30;99.90
22966;DHT22;11649;48.090;9.754;2022-08-19T14:22:06;17.20;99.90
22966;DHT22;11649;48.090;9.754;2022-08-19T14:24:33;17.40;99.90
22966;DHT22;11649;48.090;9.754;2022-08-19T14:27:00;17.50;99.90
22966;DHT22;11649;48.090;9.754;2022-08-19T14:29:26;17.10;99.90
22966;DHT22;11649;48.090;9.754;2022-08-19T14:31:55;17.40;99.90
22966;DHT22;11649;48.090;9.754;2022-08-19T14:34:25;17.50;99.90
22966;DHT22;11649;48.090;9.754;2022-08-19T14:36:53;17.10;99.90
22966;DHT22;11649;48.090;9.754;2022-08-19T14:39:19;17.30;99.90
22966;DHT22;11649;48.090;9.754;2022-08-19T14:41:46;17.60;99.90
22966;DHT22;11649;48.090;9.754;2022-08-19T14:44:13;17.20;99.90
22966;DHT22;11649;48.090;9.754;2022-08-19T14:46:40;17.20;99.90
22966;DHT22;11649;48.090;9.754;2022-08-19T14:49:14;17.60;99.90
22966;DHT22;11649;48.090;9.754;2022-08-19T14:51:41;17.20;99.90
22966;DHT22;11649;48.090;9.754;2022-08-19T14:54:08;17.10;99.90
22966;DHT22;11649;48.090;9.754;2022-08-19T14:56:35;17.10;99.90
22966;DHT22;11649;48.090;9.754;2022-08-19T14:59:02;17.20;99.90
22966;DHT22;11649;48.090;9.754;2022-08-19T15:01:29;17.20;99.90
22966;DHT22;11649;48.090;9.754;2022-08-19T15:03:56;17.20;99.90
22966;DHT22;11649;48.090;9.754;2022-08-19T15:06:24;17.10;99.90
22966;DHT22;11649;48.090;9.754;2022-08-19T15:08:51;17.70;99.90
22966;DHT22;11649;48.090;9.754;2022-08-19T15:11:22;17.20;99.90
22966;DHT22;11649;48.090;9.754;2022-08-19T15:13:49;17.50;99.90
22966;DHT22;11649;48.090;9.754;2022-08-19T15:16:17;17.30;99.90
22966;DHT22;11649;48.090;9.754;2022-08-19T15:18:46;17.30;99.90
22966;DHT22;11649;48.090;9.754;2022-08-19T15:21:14;17.50;99.90
22966;DHT22;11649;48.090;9.754;2022-08-19T15:23:52;17.20;99.90
22966;DHT22;11649;48.090;9.754;2022-08-19T15:26:20;17.30;99.90
22966;DHT22;11649;48.090;9.754;2022-08-19T15:28:47;17.90;99.90
22966;DHT22;11649;48.090;9.754;2022-08-19T15:31:17;17.40;99.90
22966;DHT22;11649;48.090;9.754;2022-08-19T15:33:55;17.30;99.90
22966;DHT22;11649;48.090;9.754;2022-08-19T15:36:24;17.70;99.90
22966;DHT22;11649;48.090;9.754;2022-08-19T15:38:53;18.00;99.90
22966;DHT22;11649;48.090;9.754;2022-08-19T15:41:24;17.30;99.90
22966;DHT22;11649;48.090;9.754;2022-08-19T15:44:00;17.30;99.90
22966;DHT22;11649;48.090;9.754;2022-08-19T15:46:31;17.30;99.90
22966;DHT22;11649;48.090;9.754;2022-08-19T15:48:58;17.30;99.90
22966;DHT22;11649;48.090;9.754;2022-08-19T15:51:28;17.40;99.90
22966;DHT22;11649;48.090;9.754;2022-08-19T15:53:57;17.30;99.90
22966;DHT22;11649;48.090;9.754;2022-08-19T15:56:24;17.60;99.90
22966;DHT22;11649;48.090;9.754;2022-08-19T15:58:53;17.50;99.90
22966;DHT22;11649;48.090;9.754;2022-08-19T16:01:38;17.60;99.90
22966;DHT22;11649;48.090;9.754;2022-08-19T16:04:24;17.40;99.90
22966;DHT22;11649;48.090;9.754;2022-08-19T16:07:09;17.40;99.90
22966;DHT22;11649;48.090;9.754;2022-08-19T16:09:38;17.40;99.90
22966;DHT22;11649;48.090;9.754;2022-08-19T16:12:05;17.60;99.90
22966;DHT22;11649;48.090;9.754;2022-08-19T16:14:33;17.40;99.90
22966;DHT22;11649;48.090;9.754;2022-08-19T16:17:01;17.40;99.90
22966;DHT22;11649;48.090;9.754;2022-08-19T16:19:28;17.60;99.90
22966;DHT22;11649;48.090;9.754;2022-08-19T16:21:56;17.40;99.90
22966;DHT22;11649;48.090;9.754;2022-08-19T16:24:25;17.50;99.90
22966;DHT22;11649;48.090;9.754;2022-08-19T16:26:52;17.50;99.90
22966;DHT22;11649;48.090;9.754;2022-08-19T16:29:20;17.50;99.90
22966;DHT22;11649;48.090;9.754;2022-08-19T16:32:03;17.70;99.90
22966;DHT22;11649;48.090;9.754;2022-08-19T16:34:31;17.60;99.90
22966;DHT22;11649;48.090;9.754;2022-08-19T16:37:00;17.60;99.90
22966;DHT22;11649;48.090;9.754;2022-08-19T16:39:26;17.60;99.90
22966;DHT22;11649;48.090;9.754;2022-08-19T16:41:53;18.00;99.90
22966;DHT22;11649;48.090;9.754;2022-08-19T16:44:20;17.60;99.90
22966;DHT22;11649;48.090;9.754;2022-08-19T16:46:48;17.90;99.90
22966;DHT22;11649;48.090;9.754;2022-08-19T16:49:25;17.40;99.90
22966;DHT22;11649;48.090;9.754;2022-08-19T16:52:13;17.50;99.90
22966;DHT22;11649;48.090;9.754;2022-08-19T16:54:40;17.90;99.90
22966;DHT22;11649;48.090;9.754;2022-08-19T16:57:09;17.60;99.90
22966;DHT22;11649;48.090;9.754;2022-08-19T16:59:38;17.70;99.90
22966;DHT22;11649;48.090;9.754;2022-08-19T17:02:16;18.10;99.90
22966;DHT22;11649;48.090;9.754;2022-08-19T17:04:43;17.60;99.90
22966;DHT22;11649;48.090;9.754;2022-08-19T17:07:23;17.60;99.90
22966;DHT22;11649;48.090;9.754;2022-08-19T17:09:50;17.80;99.90
22966;DHT22;11649;48.090;9.754;2022-08-19T17:12:17;17.70;99.90
22966;DHT22;11649;48.090;9.754;2022-08-19T17:14:44;18.00;99.90
22966;DHT22;11649;48.090;9.754;2022-08-19T17:17:11;17.90;99.90
22966;DHT22;11649;48.090;9.754;2022-08-19T17:19:39;17.60;99.90